フランクフルト の空港の天気 - METARとTAF

フランクフルト国際空港 ( EDDF / FRA ) - ドイツ フランクフルト・アム・マイン
飛行場実況気象(Metar)
観測時間04/27 18:20 CEST (04/27 16:20 UTC)
風向・風速北 5m/s 瞬間風速11m/s
視程10km以上
天気現象周辺でしゅう雨
少しの雲 雲底高度 1520m
全天の4割程度の雲 雲底高度 3050m
気温12℃
湿度35%
気圧1014hPa
METAREDDF 271620Z VRB09G21KT 9999 VCSH FEW050TCU SCT100 12/M03 Q1014 NOSIG
過去の天気等 Google飛行場航空写真 Wunderground天気予報

過去48時間のMETAR

飛行場予報(TAF)
発表時間: 4/27 13:00 CEST (4/27 11:00 UTC)
予報対象時間: 27日14時 CEST ~ 28日20時 CEST
風向・風速北北西 4m/s
視程10km以上
なし
28日12時 CEST ~ 28日14時 CEST に徐々に
風向・風速西 4m/s
TAF EDDF 271100Z 2712/2818 34007KT CAVOK
BECMG 2810/2812 28007KT